This is the latest recevied weather packets stored in our database for station/object KY4GW. If no packets are shown the sender has not sent any weather packets the latest 10 day(s).
| Time | Temp. | Humidity | Pressure | Rain* | Wind** | Luminosity | Snow |
|---|---|---|---|---|---|---|---|
| 1778017012 | 18.33° C | 77% | 1011.6 hPa | 0 mm | - | 78 W/m² | - |
| 1778016709 | 18.33° C | 75% | 1011.6 hPa | 0 mm | - | 53 W/m² | - |
| 1778016404 | 18.33° C | 76% | 1011.6 hPa | 0 mm | - | 42 W/m² | - |
| 1778016102 | 18.33° C | 73% | 1011.6 hPa | 0 mm | - | 42 W/m² | - |
| 1778015799 | 18.33° C | 73% | 1011.6 hPa | 0 mm | - | 39 W/m² | - |
| 1778015496 | 18.33° C | 74% | 1011.6 hPa | 0 mm | - | 41 W/m² | - |
| 1778015193 | 18.33° C | 72% | 1011.6 hPa | 0 mm | - | 45 W/m² | - |
| 1778014890 | 18.33° C | 73% | 1011.6 hPa | 0 mm | - | 41 W/m² | - |
| 1778014587 | 18.33° C | 71% | 1012.1 hPa | 0 mm | - | 33 W/m² | - |
| 1778014285 | 18.33° C | 73% | 1012.1 hPa | 0 mm | - | 37 W/m² | - |
| 1778013982 | 18.33° C | 74% | 1012.1 hPa | 0 mm | - | 37 W/m² | - |
| 1778013680 | 18.33° C | 72% | 1012.1 hPa | 0 mm | - | 40 W/m² | - |
| 1778013376 | 18.89° C | 72% | 1012.1 hPa | 0 mm | - | 36 W/m² | - |
| 1778007920 | 21.67° C | 62% | 1012.8 hPa | 0 mm | - | 470 W/m² | - |
| 1778007617 | 21.67° C | 62% | 1012.8 hPa | 0 mm | - | 470 W/m² | - |
| 1778007314 | 21.67° C | 62% | 1012.8 hPa | 0 mm | - | 470 W/m² | - |
| 1778007010 | 21.11° C | 60% | 1012.8 hPa | 0 mm | - | 301 W/m² | - |
| 1778006707 | 21.67° C | 61% | 1012.8 hPa | 0 mm | - | 258 W/m² | - |
| 1778006403 | 21.67° C | 61% | 1012.8 hPa | 0 mm | - | 278 W/m² | - |
| 1778006101 | 21.67° C | 60% | 1012.8 hPa | 0 mm | - | 236 W/m² | - |
| 1778005797 | 21.67° C | 61% | 1013.1 hPa | 0 mm | - | 390 W/m² | - |
| 1778005494 | 21.67° C | 61% | 1013.1 hPa | 0 mm | - | 327 W/m² | - |
| 1778005190 | 21.11° C | 61% | 1013.1 hPa | 0 mm | - | 293 W/m² | - |
| 1778004888 | 21.11° C | 61% | 1013.1 hPa | 0 mm | - | 345 W/m² | - |
| 1778004585 | 20.56° C | 62% | 1013.1 hPa | 0 mm | - | 328 W/m² | - |
* Rain latest hour (hover to see other rain measurements)
** Current wind speed in m/s (hover to see current wind gust speed)